Rokkomaru — JD3738 — position and weather

sailwx.info

Track history (hours):
 
Tides and Currents Weather Stations Pressure Air Temp Water Temp Dewpoint Dewpoint Depression Visibility Wind Speed Wind Dir Waves Ship Positions

Rokkomaru

Last reported at 2018-Feb-20 10:19 UTC. Time now 2018-Feb-20 11:20 UTC.
Position N 34°41' E 135°12'.

Length 33 m; draft 4.3 m.

Type: Tug. MMSI: 431005792.

Date/timePositionNaut miles runAvg speedWind from/ knotsBaromVisibWave heightAir tempDewpointWater temp
2018-Feb-20 10:19N 34°41' E 135°12'2 7.9
2018-Feb-20 10:01N 34°39' E 135°14'612.5
2018-Feb-20 09:30N 34°35' E 135°20'5 9.4
2018-Feb-20 09:01N 34°31' E 135°23'0 0.7
2018-Feb-20 08:30N 34°31' E 135°23'0 0.0
2018-Feb-20 08:01N 34°31' E 135°23'0 0.0
2018-Feb-20 07:30N 34°31' E 135°23'0 0.7
2018-Feb-20 07:01N 34°31' E 135°23'0 0.0
2018-Feb-20 06:31N 34°31' E 135°23'1 1.2
2018-Feb-20 06:00N 34°31' E 135°24'0 0.0
2018-Feb-20 05:31N 34°31' E 135°24'0 0.0
2018-Feb-20 05:00N 34°31' E 135°24'0 0.0
2018-Feb-20 04:29N 34°31' E 135°24'0 0.0
2018-Feb-20 04:00N 34°31' E 135°24'2 4.8
2018-Feb-20 03:30N 34°33' E 135°24'0 0.0
2018-Feb-20 03:01N 34°33' E 135°24'0 0.7
2018-Feb-20 02:30N 34°33' E 135°24'3 5.9
2018-Feb-20 02:00N 34°33' E 135°20'1 1.2
2018-Feb-20 01:30N 34°34' E 135°21'3 6.3
2018-Feb-20 01:00N 34°36' E 135°24'0 0.0
2018-Feb-20 00:30N 34°36' E 135°24'0 0.0
2018-Feb-20 00:01N 34°36' E 135°24'0 0.0
2018-Feb-19 23:31N 34°36' E 135°24'3 6.4
2018-Feb-19 23:01N 34°39' E 135°26'0 0.6
2018-Feb-19 22:31N 34°39' E 135°25'2 4.0
2018-Feb-19 22:01N 34°38' E 135°23'2 3.5
2018-Feb-19 21:31N 34°39' E 135°21'510.7
2018-Feb-19 21:01N 34°41' E 135°15'2 0.1
2018-Feb-18 22:29N 34°41' E 135°12'1 1.3
2018-Feb-18 22:00N 34°41' E 135°11'1 2.0
2018-Feb-18 21:30N 34°40' E 135°12'2 4.7
2018-Feb-18 21:00N 34°37' E 135°11'3 5.6
2018-Feb-18 20:31N 34°37' E 135°14'2 4.0
2018-Feb-18 20:00N 34°39' E 135°15'2 3.8
2018-Feb-18 19:31N 34°41' E 135°14'0 0.1
2018-Feb-18 19:00N 34°41' E 135°14'0 0.1
2018-Feb-18 18:31N 34°41' E 135°14'2 0.1
2018-Feb-18 04:45N 34°41' E 135°12'2 7.5
2018-Feb-18 04:30N 34°39' E 135°11'611.9
2018-Feb-18 04:00N 34°36' E 135°05'611.9
2018-Feb-18 03:31N 34°37' E 134°57'612.3
2018-Feb-18 03:00N 34°39' E 134°51'3 7.0
2018-Feb-18 02:30N 34°43' E 134°50'0 0.0
2018-Feb-18 02:00N 34°43' E 134°50'1 1.2
2018-Feb-18 01:30N 34°42' E 134°50'3 5.6
2018-Feb-18 01:00N 34°40' E 134°48'2 3.9
2018-Feb-18 00:31N 34°41' E 134°46'5 8.9
2018-Feb-18 00:00N 34°43' E 134°51'1 2.3
2018-Feb-17 23:28N 34°42' E 134°50'4 8.0
2018-Feb-17 23:01N 34°38' E 134°52'714.0
2018-Feb-17 22:31N 34°38' E 135°00'612.8
2018-Feb-17 22:00N 34°38' E 135°08'4 8.8
2018-Feb-17 21:30N 34°41' E 135°12'0 0.0
2018-Feb-17 09:42N 34°41' E 135°12'1 4.1
2018-Feb-17 09:30N 34°41' E 135°13'510.5
2018-Feb-17 09:00N 34°37' E 135°18'612.2
2018-Feb-17 08:30N 34°33' E 135°23'2 4.0
2018-Feb-17 08:01N 34°31' E 135°23'0 0.0
2018-Feb-17 07:31N 34°31' E 135°23'1 1.6
2018-Feb-17 07:00N 34°31' E 135°24'0 0.0
2018-Feb-17 06:30N 34°31' E 135°24'0 0.0
2018-Feb-17 06:00N 34°31' E 135°24'0 0.0
2018-Feb-17 05:30N 34°31' E 135°24'0 0.0
2018-Feb-17 05:00N 34°31' E 135°24'0 0.0
2018-Feb-17 04:30N 34°31' E 135°24'1 1.1
2018-Feb-17 03:59N 34°32' E 135°24'0 0.0
2018-Feb-17 03:30N 34°32' E 135°24'0 0.0
2018-Feb-17 03:00N 34°32' E 135°24'0 0.0
2018-Feb-17 02:30N 34°32' E 135°24'0 0.0
2018-Feb-17 02:00N 34°32' E 135°24'0 0.0
2018-Feb-17 01:30N 34°32' E 135°24'1 1.1
2018-Feb-17 01:00N 34°31' E 135°24'2 4.7
2018-Feb-17 00:30N 34°33' E 135°25'0 0.9
2018-Feb-17 00:00N 34°33' E 135°26'0 0.8
2018-Feb-16 23:30N 34°33' E 135°26'611.1
2018-Feb-16 23:00N 34°36' E 135°19'612.1
2018-Feb-16 22:30N 34°39' E 135°13'2 0.1
2018-Feb-16 07:11N 34°41' E 135°12'1 5.0
2018-Feb-16 07:00N 34°41' E 135°13'2 4.5
2018-Feb-16 06:31N 34°39' E 135°15'0 0.4
2018-Feb-16 06:00N 34°39' E 135°15'0 0.2
2018-Feb-16 05:30N 34°39' E 135°15'0 0.0
2018-Feb-16 05:00N 34°39' E 135°15'0 0.9
2018-Feb-16 04:31N 34°39' E 135°15'2 3.1
2018-Feb-16 04:01N 34°39' E 135°16'1 2.2
2018-Feb-16 03:31N 34°39' E 135°15'0 0.0
2018-Feb-16 03:01N 34°39' E 135°15'0 0.0
2018-Feb-16 02:30N 34°39' E 135°15'0 0.9
2018-Feb-16 02:00N 34°39' E 135°15'0 0.6
2018-Feb-16 01:30N 34°39' E 135°15'0 0.0
2018-Feb-16 01:00N 34°39' E 135°15'0 0.0
2018-Feb-16 00:30N 34°39' E 135°15'0 0.0
2018-Feb-16 00:00N 34°39' E 135°15'0 0.0
2018-Feb-15 23:30N 34°39' E 135°15'3 5.4
2018-Feb-15 23:01N 34°41' E 135°13'2 3.9
2018-Feb-15 22:30N 34°41' E 135°15'1 2.7
2018-Feb-15 22:00N 34°40' E 135°15'2 4.8
2018-Feb-15 21:30N 34°41' E 135°12'0 0.0
2018-Feb-15 10:38N 34°41' E 135°12'0 1.8
2018-Feb-15 10:30N 34°41' E 135°12'2 3.4
2018-Feb-15 10:00N 34°40' E 135°14'2 3.8
2018-Feb-15 09:30N 34°39' E 135°16'0 0.6
2018-Feb-15 09:00N 34°39' E 135°16'1 1.2
2018-Feb-15 08:30N 34°39' E 135°15'0 0.0
2018-Feb-15 08:00N 34°39' E 135°15'1 2.3
2018-Feb-15 07:30N 34°40' E 135°14'2 4.1
2018-Feb-15 07:00N 34°41' E 135°17'1 1.8
2018-Feb-15 06:30N 34°41' E 135°17'4 7.9
2018-Feb-15 06:00N 34°41' E 135°13'0 0.1
2018-Feb-15 05:29N 34°41' E 135°13'0 0.0
2018-Feb-15 05:00N 34°41' E 135°13'0 0.0
2018-Feb-15 04:30N 34°41' E 135°13'0 0.0
2018-Feb-15 04:00N 34°41' E 135°13'2 4.5
2018-Feb-15 03:31N 34°41' E 135°15'1 1.4
2018-Feb-15 03:00N 34°41' E 135°15'2 3.1
2018-Feb-15 02:30N 34°41' E 135°13'0 0.0
2018-Feb-15 02:00N 34°41' E 135°13'0 0.0
2018-Feb-15 01:30N 34°41' E 135°13'0 0.0
2018-Feb-15 01:00N 34°41' E 135°13'2 4.2
2018-Feb-15 00:30N 34°41' E 135°15'2 3.1
2018-Feb-15 00:01N 34°41' E 135°17'1 1.4
2018-Feb-14 23:31N 34°41' E 135°16'1 2.1
2018-Feb-14 23:01N 34°40' E 135°15'1 2.4
2018-Feb-14 22:30N 34°42' E 135°14'1 1.3
2018-Feb-14 22:00N 34°41' E 135°13'1 0.1
2018-Feb-14 02:29N 34°41' E 135°12'4 7.4
2018-Feb-14 02:00N 34°38' E 135°16'612.5
2018-Feb-14 01:30N 34°35' E 135°22'2 4.9
2018-Feb-14 01:00N 34°34' E 135°24'0 0.0
2018-Feb-14 00:30N 34°34' E 135°24'1 1.3
2018-Feb-14 00:00N 34°33' E 135°24'2 3.4
2018-Feb-13 23:30N 34°33' E 135°22'2 3.9
2018-Feb-13 23:00N 34°34' E 135°19'2 4.8
2018-Feb-13 22:30N 34°36' E 135°18'510.5
2018-Feb-13 22:01N 34°39' E 135°13'2 0.1
2018-Feb-13 00:13N 34°41' E 135°12'1 4.2
2018-Feb-13 00:00N 34°41' E 135°13'2 4.4
2018-Feb-12 23:30N 34°42' E 135°16'0 0.4
2018-Feb-12 23:00N 34°42' E 135°15'1 2.7
2018-Feb-12 22:30N 34°41' E 135°15'1 2.8
2018-Feb-12 22:01N 34°40' E 135°16'0 0.4
2018-Feb-12 21:30N 34°40' E 135°16'1 2.8
2018-Feb-12 21:00N 34°41' E 135°15'2 3.6
2018-Feb-12 20:30N 34°40' E 135°13'0 0.0
2018-Feb-12 20:00N 34°40' E 135°13'0 0.0
2018-Feb-12 19:30N 34°40' E 135°13'0 0.0
2018-Feb-12 19:00N 34°40' E 135°13'0 0.0
2018-Feb-12 18:30N 34°40' E 135°13'0 0.0
2018-Feb-12 18:00N 34°40' E 135°13'0 0.0
2018-Feb-12 17:30N 34°40' E 135°13'0 0.0
2018-Feb-12 17:00N 34°40' E 135°13'0 0.0
2018-Feb-12 16:30N 34°40' E 135°13'2 4.2
2018-Feb-12 16:01N 34°41' E 135°16'0 0.2
2018-Feb-12 15:31N 34°41' E 135°16'1 2.9
2018-Feb-12 15:00N 34°40' E 135°14'0 0.1
2018-Feb-12 14:30N 34°40' E 135°14'0 0.1
2018-Feb-12 14:01N 34°40' E 135°14'0 0.3
2018-Feb-12 13:30N 34°40' E 135°14'1 2.5
2018-Feb-12 13:00N 34°40' E 135°15'1 1.3
2018-Feb-12 12:30N 34°40' E 135°15'1 2.9
2018-Feb-12 12:00N 34°40' E 135°13'0 0.0
2018-Feb-12 11:30N 34°40' E 135°13'0 0.0
2018-Feb-12 11:00N 34°40' E 135°13'0 0.0
2018-Feb-12 10:30N 34°40' E 135°13'0 0.0
2018-Feb-12 10:00N 34°40' E 135°13'0 0.0
2018-Feb-12 09:30N 34°40' E 135°13'0 0.0
2018-Feb-12 09:00N 34°40' E 135°13'0 0.0
2018-Feb-12 08:30N 34°40' E 135°13'0 0.0
2018-Feb-12 08:00N 34°40' E 135°13'0 0.0
2018-Feb-12 07:30N 34°40' E 135°13'0 0.0
2018-Feb-12 07:00N 34°40' E 135°13'2 4.5
2018-Feb-12 06:30N 34°42' E 135°15'1 1.5
2018-Feb-12 06:00N 34°41' E 135°14'1 1.4
2018-Feb-12 05:31N 34°41' E 135°13'  
Track history (hours):
 
Tides and Currents Weather Stations Pressure Air Temp Water Temp Dewpoint Dewpoint Depression Visibility Wind Speed Wind Dir Waves Ship Positions

Rokkomaru

Last reported at 2018-Feb-20 10:19 UTC. Time now 2018-Feb-20 11:20 UTC.
Position N 34°41' E 135°12'.

Length 33 m; draft 4.3 m.

Type: Tug. MMSI: 431005792.

Date/timePositionNaut miles runAvg speedWind from/ knotsBaromVisibWave heightAir tempDewpointWater temp
2018-Feb-20 10:19N 34°41' E 135°12'2 7.9
2018-Feb-20 10:01N 34°39' E 135°14'612.5
2018-Feb-20 09:30N 34°35' E 135°20'5 9.4
2018-Feb-20 09:01N 34°31' E 135°23'0 0.7
2018-Feb-20 08:30N 34°31' E 135°23'0 0.0
2018-Feb-20 08:01N 34°31' E 135°23'0 0.0
2018-Feb-20 07:30N 34°31' E 135°23'0 0.7
2018-Feb-20 07:01N 34°31' E 135°23'0 0.0
2018-Feb-20 06:31N 34°31' E 135°23'1 1.2
2018-Feb-20 06:00N 34°31' E 135°24'0 0.0
2018-Feb-20 05:31N 34°31' E 135°24'0 0.0
2018-Feb-20 05:00N 34°31' E 135°24'0 0.0
2018-Feb-20 04:29N 34°31' E 135°24'0 0.0
2018-Feb-20 04:00N 34°31' E 135°24'2 4.8
2018-Feb-20 03:30N 34°33' E 135°24'0 0.0
2018-Feb-20 03:01N 34°33' E 135°24'0 0.7
2018-Feb-20 02:30N 34°33' E 135°24'3 5.9
2018-Feb-20 02:00N 34°33' E 135°20'1 1.2
2018-Feb-20 01:30N 34°34' E 135°21'3 6.3
2018-Feb-20 01:00N 34°36' E 135°24'0 0.0
2018-Feb-20 00:30N 34°36' E 135°24'0 0.0
2018-Feb-20 00:01N 34°36' E 135°24'0 0.0
2018-Feb-19 23:31N 34°36' E 135°24'3 6.4
2018-Feb-19 23:01N 34°39' E 135°26'0 0.6
2018-Feb-19 22:31N 34°39' E 135°25'2 4.0
2018-Feb-19 22:01N 34°38' E 135°23'2 3.5
2018-Feb-19 21:31N 34°39' E 135°21'510.7
2018-Feb-19 21:01N 34°41' E 135°15'2 0.1
2018-Feb-18 22:29N 34°41' E 135°12'1 1.3
2018-Feb-18 22:00N 34°41' E 135°11'1 2.0
2018-Feb-18 21:30N 34°40' E 135°12'2 4.7
2018-Feb-18 21:00N 34°37' E 135°11'3 5.6
2018-Feb-18 20:31N 34°37' E 135°14'2 4.0
2018-Feb-18 20:00N 34°39' E 135°15'2 3.8
2018-Feb-18 19:31N 34°41' E 135°14'0 0.1
2018-Feb-18 19:00N 34°41' E 135°14'0 0.1
2018-Feb-18 18:31N 34°41' E 135°14'2 0.1
2018-Feb-18 04:45N 34°41' E 135°12'2 7.5
2018-Feb-18 04:30N 34°39' E 135°11'611.9
2018-Feb-18 04:00N 34°36' E 135°05'611.9
2018-Feb-18 03:31N 34°37' E 134°57'612.3
2018-Feb-18 03:00N 34°39' E 134°51'3 7.0
2018-Feb-18 02:30N 34°43' E 134°50'0 0.0
2018-Feb-18 02:00N 34°43' E 134°50'1 1.2
2018-Feb-18 01:30N 34°42' E 134°50'3 5.6
2018-Feb-18 01:00N 34°40' E 134°48'2 3.9
2018-Feb-18 00:31N 34°41' E 134°46'5 8.9
2018-Feb-18 00:00N 34°43' E 134°51'1 2.3
2018-Feb-17 23:28N 34°42' E 134°50'4 8.0
2018-Feb-17 23:01N 34°38' E 134°52'714.0
2018-Feb-17 22:31N 34°38' E 135°00'612.8
2018-Feb-17 22:00N 34°38' E 135°08'4 8.8
2018-Feb-17 21:30N 34°41' E 135°12'0 0.0
2018-Feb-17 09:42N 34°41' E 135°12'1 4.1
2018-Feb-17 09:30N 34°41' E 135°13'510.5
2018-Feb-17 09:00N 34°37' E 135°18'612.2
2018-Feb-17 08:30N 34°33' E 135°23'2 4.0
2018-Feb-17 08:01N 34°31' E 135°23'0 0.0
2018-Feb-17 07:31N 34°31' E 135°23'1 1.6
2018-Feb-17 07:00N 34°31' E 135°24'0 0.0
2018-Feb-17 06:30N 34°31' E 135°24'0 0.0
2018-Feb-17 06:00N 34°31' E 135°24'0 0.0
2018-Feb-17 05:30N 34°31' E 135°24'0 0.0
2018-Feb-17 05:00N 34°31' E 135°24'0 0.0
2018-Feb-17 04:30N 34°31' E 135°24'1 1.1
2018-Feb-17 03:59N 34°32' E 135°24'0 0.0
2018-Feb-17 03:30N 34°32' E 135°24'0 0.0
2018-Feb-17 03:00N 34°32' E 135°24'0 0.0
2018-Feb-17 02:30N 34°32' E 135°24'0 0.0
2018-Feb-17 02:00N 34°32' E 135°24'0 0.0
2018-Feb-17 01:30N 34°32' E 135°24'1 1.1
2018-Feb-17 01:00N 34°31' E 135°24'2 4.7
2018-Feb-17 00:30N 34°33' E 135°25'0 0.9
2018-Feb-17 00:00N 34°33' E 135°26'0 0.8
2018-Feb-16 23:30N 34°33' E 135°26'611.1
2018-Feb-16 23:00N 34°36' E 135°19'612.1
2018-Feb-16 22:30N 34°39' E 135°13'2 0.1
2018-Feb-16 07:11N 34°41' E 135°12'1 5.0
2018-Feb-16 07:00N 34°41' E 135°13'2 4.5
2018-Feb-16 06:31N 34°39' E 135°15'0 0.4
2018-Feb-16 06:00N 34°39' E 135°15'0 0.2
2018-Feb-16 05:30N 34°39' E 135°15'0 0.0
2018-Feb-16 05:00N 34°39' E 135°15'0 0.9
2018-Feb-16 04:31N 34°39' E 135°15'2 3.1
2018-Feb-16 04:01N 34°39' E 135°16'1 2.2
2018-Feb-16 03:31N 34°39' E 135°15'0 0.0
2018-Feb-16 03:01N 34°39' E 135°15'0 0.0
2018-Feb-16 02:30N 34°39' E 135°15'0 0.9
2018-Feb-16 02:00N 34°39' E 135°15'0 0.6
2018-Feb-16 01:30N 34°39' E 135°15'0 0.0
2018-Feb-16 01:00N 34°39' E 135°15'0 0.0
2018-Feb-16 00:30N 34°39' E 135°15'0 0.0
2018-Feb-16 00:00N 34°39' E 135°15'0 0.0
2018-Feb-15 23:30N 34°39' E 135°15'3 5.4
2018-Feb-15 23:01N 34°41' E 135°13'2 3.9
2018-Feb-15 22:30N 34°41' E 135°15'1 2.7
2018-Feb-15 22:00N 34°40' E 135°15'2 4.8
2018-Feb-15 21:30N 34°41' E 135°12'0 0.0
2018-Feb-15 10:38N 34°41' E 135°12'0 1.8
2018-Feb-15 10:30N 34°41' E 135°12'2 3.4
2018-Feb-15 10:00N 34°40' E 135°14'2 3.8
2018-Feb-15 09:30N 34°39' E 135°16'0 0.6
2018-Feb-15 09:00N 34°39' E 135°16'1 1.2
2018-Feb-15 08:30N 34°39' E 135°15'0 0.0
2018-Feb-15 08:00N 34°39' E 135°15'1 2.3
2018-Feb-15 07:30N 34°40' E 135°14'2 4.1
2018-Feb-15 07:00N 34°41' E 135°17'1 1.8
2018-Feb-15 06:30N 34°41' E 135°17'4 7.9
2018-Feb-15 06:00N 34°41' E 135°13'0 0.1
2018-Feb-15 05:29N 34°41' E 135°13'0 0.0
2018-Feb-15 05:00N 34°41' E 135°13'0 0.0
2018-Feb-15 04:30N 34°41' E 135°13'0 0.0
2018-Feb-15 04:00N 34°41' E 135°13'2 4.5
2018-Feb-15 03:31N 34°41' E 135°15'1 1.4
2018-Feb-15 03:00N 34°41' E 135°15'2 3.1
2018-Feb-15 02:30N 34°41' E 135°13'0 0.0
2018-Feb-15 02:00N 34°41' E 135°13'0 0.0
2018-Feb-15 01:30N 34°41' E 135°13'0 0.0
2018-Feb-15 01:00N 34°41' E 135°13'2 4.2
2018-Feb-15 00:30N 34°41' E 135°15'2 3.1
2018-Feb-15 00:01N 34°41' E 135°17'1 1.4
2018-Feb-14 23:31N 34°41' E 135°16'1 2.1
2018-Feb-14 23:01N 34°40' E 135°15'1 2.4
2018-Feb-14 22:30N 34°42' E 135°14'1 1.3
2018-Feb-14 22:00N 34°41' E 135°13'1 0.1
2018-Feb-14 02:29N 34°41' E 135°12'4 7.4
2018-Feb-14 02:00N 34°38' E 135°16'612.5
2018-Feb-14 01:30N 34°35' E 135°22'2 4.9
2018-Feb-14 01:00N 34°34' E 135°24'0 0.0
2018-Feb-14 00:30N 34°34' E 135°24'1 1.3
2018-Feb-14 00:00N 34°33' E 135°24'2 3.4
2018-Feb-13 23:30N 34°33' E 135°22'2 3.9
2018-Feb-13 23:00N 34°34' E 135°19'2 4.8
2018-Feb-13 22:30N 34°36' E 135°18'510.5
2018-Feb-13 22:01N 34°39' E 135°13'2 0.1
2018-Feb-13 00:13N 34°41' E 135°12'1 4.2
2018-Feb-13 00:00N 34°41' E 135°13'2 4.4
2018-Feb-12 23:30N 34°42' E 135°16'0 0.4
2018-Feb-12 23:00N 34°42' E 135°15'1 2.7
2018-Feb-12 22:30N 34°41' E 135°15'1 2.8
2018-Feb-12 22:01N 34°40' E 135°16'0 0.4
2018-Feb-12 21:30N 34°40' E 135°16'1 2.8
2018-Feb-12 21:00N 34°41' E 135°15'2 3.6
2018-Feb-12 20:30N 34°40' E 135°13'0 0.0
2018-Feb-12 20:00N 34°40' E 135°13'0 0.0
2018-Feb-12 19:30N 34°40' E 135°13'0 0.0
2018-Feb-12 19:00N 34°40' E 135°13'0 0.0
2018-Feb-12 18:30N 34°40' E 135°13'0 0.0
2018-Feb-12 18:00N 34°40' E 135°13'0 0.0
2018-Feb-12 17:30N 34°40' E 135°13'0 0.0
2018-Feb-12 17:00N 34°40' E 135°13'0 0.0
2018-Feb-12 16:30N 34°40' E 135°13'2 4.2
2018-Feb-12 16:01N 34°41' E 135°16'0 0.2
2018-Feb-12 15:31N 34°41' E 135°16'1 2.9
2018-Feb-12 15:00N 34°40' E 135°14'0 0.1
2018-Feb-12 14:30N 34°40' E 135°14'0 0.1
2018-Feb-12 14:01N 34°40' E 135°14'0 0.3
2018-Feb-12 13:30N 34°40' E 135°14'1 2.5
2018-Feb-12 13:00N 34°40' E 135°15'1 1.3
2018-Feb-12 12:30N 34°40' E 135°15'1 2.9
2018-Feb-12 12:00N 34°40' E 135°13'0 0.0
2018-Feb-12 11:30N 34°40' E 135°13'0 0.0
2018-Feb-12 11:00N 34°40' E 135°13'0 0.0
2018-Feb-12 10:30N 34°40' E 135°13'0 0.0
2018-Feb-12 10:00N 34°40' E 135°13'0 0.0
2018-Feb-12 09:30N 34°40' E 135°13'0 0.0
2018-Feb-12 09:00N 34°40' E 135°13'0 0.0
2018-Feb-12 08:30N 34°40' E 135°13'0 0.0
2018-Feb-12 08:00N 34°40' E 135°13'0 0.0
2018-Feb-12 07:30N 34°40' E 135°13'0 0.0
2018-Feb-12 07:00N 34°40' E 135°13'2 4.5
2018-Feb-12 06:30N 34°42' E 135°15'1 1.5
2018-Feb-12 06:00N 34°41' E 135°14'1 1.4
2018-Feb-12 05:31N 34°41' E 135°13'  

Dump ship's entire track history